Saint Xavier, MT

4:22 AM MDT on August 02, 2014 (GMT -0600)
Billings Logan International (KBIL) Elev 3570 ft | 45.81 °N, 108.54 °W | Change Station

Current weather conditions updated 29 minutes ago

Clear
Clear
67 °F
Feels Like 67 °F
N
0
Wind Variable Wind from North

Today is forecast to be nearly the same temperature as yesterday.

Today
High -- | Low -- °F
--% Chance of Precip.
Yesterday
High -- | Low -- °F
Precip. -- in
5:56 AM 8:38 PM
Waxing Crescent, 34% visible
Pressure 30.05 in
Visibility 10.0 miles
Clouds Clear
Dew Point 44 °F
Humidity 44%
Rainfall 0.00 in
Snow Depth Not available.
UV 0 out of 12
Pollen 6.40 out of 12
Air Quality Not available.
Flu Activity Not available.
METAR KBIL 020953Z 00000KT 10SM CLR 19/07 A3016 RMK AO2 SLP174 T01940067

More Conditions Fewer Conditions

Pressure 30.05 in
Visibility 10.0 miles
Clouds Clear
Dew Point 44 °F
Humidity 44%
Rainfall 0.00 in
Snow Depth Not available.
UV 0 out of 12
Pollen 6.40 out of 12
Air Quality Not available.
Flu Activity Not available.
METAR KBIL 020953Z 00000KT 10SM CLR 19/07 A3016 RMK AO2 SLP174 T01940067

More Conditions Fewer Conditions

10-Day Weather Forecast

Almanac

Astronomy

Aug. 02, 2014 Rise Set
Actual Time 5:56 AM MDT 8:38 PM MDT
Civil Twilight 5:22 AM MDT 9:11 PM MDT
Nautical Twilight 4:39 AM MDT 9:54 PM MDT
Astronomical Twilight 3:49 AM MDT 10:43 PM MDT
Moon 12:42 PM MDT 11:36 PM MDT
Length of Visible Light 15h 49m
Length of Day
14h 41m
Tomorrow will be 2m 31s shorter.
Waxing Crescent, 34% of the Moon is Illuminated
Today
Waxing Crescent
Aug 3
First Quarter
Aug 10
Full
Aug 17
Last Quarter
Aug 25
New

Today's Extremes

State Highs State Lows

Community

WunderPhotos

Upload Photos

1,739,858 photos uploaded!

Nearby

Snow Depth

Station Depth Elevation
Cole Creek 0 in 7850 ft
Burnt Mountain 0 in 5880 ft
White Mill 1 in 8700 ft
Fisher Creek 0 in 9100 ft
Placer Basin 0 in 8830 ft

Earthquake Activity

City Distance Mag. Time & Date
No recent earthquake activity has been reported nearby.
Minimum magnitude displayed is 2.5.

Coastal Water Temperatures

Place Temperature
No Stations Reporting

Nearby Weather Stations

Station Location Temp. Dew Point Humidity Wind Precip. Elev Updated Type
RAWS LITTLE BIGHORN MT, Crow Agency, MT 60 °F 42 °F 52% SSE  at  7 mph 0.00 in / hr 3196 ft 2:59 AM MDT MADIS

Show More Stations Show Fewer Stations